sensor_id;sensor_type;location;lat;lon;timestamp;P1;durP1;ratioP1;P2;durP2;ratioP2
55827;SDS011;41758;51.992;5.890;2022-09-29T00:01:09;2.88;;;1.98;;
55827;SDS011;41758;51.992;5.890;2022-09-29T00:03:35;3.15;;;1.90;;
55827;SDS011;41758;51.992;5.890;2022-09-29T00:06:01;3.75;;;2.42;;
55827;SDS011;41758;51.992;5.890;2022-09-29T00:08:28;4.43;;;2.33;;
55827;SDS011;41758;51.992;5.890;2022-09-29T00:10:55;5.35;;;2.50;;
55827;SDS011;41758;51.992;5.890;2022-09-29T00:13:21;4.68;;;2.40;;
55827;SDS011;41758;51.992;5.890;2022-09-29T00:15:57;4.57;;;2.80;;
55827;SDS011;41758;51.992;5.890;2022-09-29T00:18:24;6.43;;;3.20;;
55827;SDS011;41758;51.992;5.890;2022-09-29T00:20:56;6.45;;;3.30;;
55827;SDS011;41758;51.992;5.890;2022-09-29T00:23:25;4.30;;;2.60;;
55827;SDS011;41758;51.992;5.890;2022-09-29T00:26:08;5.22;;;2.53;;
55827;SDS011;41758;51.992;5.890;2022-09-29T00:28:49;5.03;;;2.42;;
55827;SDS011;41758;51.992;5.890;2022-09-29T00:31:23;5.25;;;2.38;;
55827;SDS011;41758;51.992;5.890;2022-09-29T00:33:50;4.63;;;2.65;;
55827;SDS011;41758;51.992;5.890;2022-09-29T00:36:18;4.93;;;3.00;;
55827;SDS011;41758;51.992;5.890;2022-09-29T00:38:45;5.45;;;2.80;;
55827;SDS011;41758;51.992;5.890;2022-09-29T00:41:19;4.30;;;2.40;;
55827;SDS011;41758;51.992;5.890;2022-09-29T00:46:26;4.95;;;3.00;;
55827;SDS011;41758;51.992;5.890;2022-09-29T00:48:58;5.15;;;2.60;;
55827;SDS011;41758;51.992;5.890;2022-09-29T00:51:38;5.07;;;2.60;;
55827;SDS011;41758;51.992;5.890;2022-09-29T00:54:07;3.83;;;2.33;;
55827;SDS011;41758;51.992;5.890;2022-09-29T00:56:34;4.57;;;2.10;;
55827;SDS011;41758;51.992;5.890;2022-09-29T00:59:05;4.97;;;2.67;;
55827;SDS011;41758;51.992;5.890;2022-09-29T01:01:33;4.57;;;2.60;;
55827;SDS011;41758;51.992;5.890;2022-09-29T01:04:09;4.53;;;2.42;;
55827;SDS011;41758;51.992;5.890;2022-09-29T01:06:47;4.07;;;2.20;;
55827;SDS011;41758;51.992;5.890;2022-09-29T01:09:19;4.47;;;2.33;;
55827;SDS011;41758;51.992;5.890;2022-09-29T01:11:53;3.72;;;2.20;;
55827;SDS011;41758;51.992;5.890;2022-09-29T01:14:22;3.80;;;2.25;;
55827;SDS011;41758;51.992;5.890;2022-09-29T01:16:48;3.83;;;2.30;;
55827;SDS011;41758;51.992;5.890;2022-09-29T01:19:27;4.68;;;2.50;;
55827;SDS011;41758;51.992;5.890;2022-09-29T01:22:10;3.75;;;2.25;;
55827;SDS011;41758;51.992;5.890;2022-09-29T01:24:54;4.07;;;2.47;;
55827;SDS011;41758;51.992;5.890;2022-09-29T01:30:18;3.97;;;2.33;;
55827;SDS011;41758;51.992;5.890;2022-09-29T01:32:51;3.85;;;2.10;;
55827;SDS011;41758;51.992;5.890;2022-09-29T01:35:42;4.43;;;2.50;;
55827;SDS011;41758;51.992;5.890;2022-09-29T01:43:43;5.00;;;2.80;;
55827;SDS011;41758;51.992;5.890;2022-09-29T01:46:15;4.07;;;2.30;;
55827;SDS011;41758;51.992;5.890;2022-09-29T01:48:53;4.93;;;2.50;;
55827;SDS011;41758;51.992;5.890;2022-09-29T01:51:24;4.18;;;2.50;;
55827;SDS011;41758;51.992;5.890;2022-09-29T01:53:56;4.00;;;2.47;;
55827;SDS011;41758;51.992;5.890;2022-09-29T01:56:29;4.60;;;2.60;;
55827;SDS011;41758;51.992;5.890;2022-09-29T01:59:04;3.92;;;2.38;;
55827;SDS011;41758;51.992;5.890;2022-09-29T02:01:46;3.88;;;2.25;;
55827;SDS011;41758;51.992;5.890;2022-09-29T02:04:19;4.47;;;2.70;;
55827;SDS011;41758;51.992;5.890;2022-09-29T02:06:51;5.15;;;3.03;;
55827;SDS011;41758;51.992;5.890;2022-09-29T02:09:28;5.32;;;3.30;;
55827;SDS011;41758;51.992;5.890;2022-09-29T02:12:01;4.95;;;3.20;;
55827;SDS011;41758;51.992;5.890;2022-09-29T02:14:35;4.88;;;2.80;;
55827;SDS011;41758;51.992;5.890;2022-09-29T02:17:07;3.90;;;2.40;;
55827;SDS011;41758;51.992;5.890;2022-09-29T02:19:43;3.97;;;2.45;;
55827;SDS011;41758;51.992;5.890;2022-09-29T02:22:10;3.53;;;2.28;;
55827;SDS011;41758;51.992;5.890;2022-09-29T02:24:36;3.83;;;2.20;;
55827;SDS011;41758;51.992;5.890;2022-09-29T02:27:03;3.92;;;2.38;;
55827;SDS011;41758;51.992;5.890;2022-09-29T02:29:30;3.70;;;2.42;;
55827;SDS011;41758;51.992;5.890;2022-09-29T02:31:57;4.05;;;2.58;;
55827;SDS011;41758;51.992;5.890;2022-09-29T02:34:26;4.10;;;2.63;;
55827;SDS011;41758;51.992;5.890;2022-09-29T02:36:57;4.88;;;3.00;;
55827;SDS011;41758;51.992;5.890;2022-09-29T02:42:39;4.70;;;2.70;;
55827;SDS011;41758;51.992;5.890;2022-09-29T02:59:09;4.55;;;2.90;;
55827;SDS011;41758;51.992;5.890;2022-09-29T03:01:33;3.90;;;2.55;;
55827;SDS011;41758;51.992;5.890;2022-09-29T03:04:02;3.90;;;2.50;;
55827;SDS011;41758;51.992;5.890;2022-09-29T03:06:28;4.28;;;2.70;;
55827;SDS011;41758;51.992;5.890;2022-09-29T03:08:54;4.25;;;2.55;;
55827;SDS011;41758;51.992;5.890;2022-09-29T03:11:20;3.38;;;2.25;;
55827;SDS011;41758;51.992;5.890;2022-09-29T03:13:45;4.22;;;2.45;;
55827;SDS011;41758;51.992;5.890;2022-09-29T03:16:11;3.03;;;2.13;;
55827;SDS011;41758;51.992;5.890;2022-09-29T03:18:36;3.90;;;2.38;;
55827;SDS011;41758;51.992;5.890;2022-09-29T03:21:02;3.92;;;2.30;;
55827;SDS011;41758;51.992;5.890;2022-09-29T03:23:28;3.78;;;2.45;;
55827;SDS011;41758;51.992;5.890;2022-09-29T03:25:53;4.90;;;2.80;;
55827;SDS011;41758;51.992;5.890;2022-09-29T03:28:19;4.40;;;2.80;;
55827;SDS011;41758;51.992;5.890;2022-09-29T03:30:45;5.25;;;2.70;;
55827;SDS011;41758;51.992;5.890;2022-09-29T03:33:11;3.38;;;2.22;;
55827;SDS011;41758;51.992;5.890;2022-09-29T03:35:37;5.53;;;3.30;;
55827;SDS011;41758;51.992;5.890;2022-09-29T03:38:02;5.07;;;3.50;;
55827;SDS011;41758;51.992;5.890;2022-09-29T03:40:28;4.13;;;2.83;;
55827;SDS011;41758;51.992;5.890;2022-09-29T03:42:54;4.40;;;2.80;;
55827;SDS011;41758;51.992;5.890;2022-09-29T03:45:19;5.07;;;2.97;;
55827;SDS011;41758;51.992;5.890;2022-09-29T03:47:45;4.82;;;2.80;;
55827;SDS011;41758;51.992;5.890;2022-09-29T03:50:11;4.50;;;2.72;;
55827;SDS011;41758;51.992;5.890;2022-09-29T03:52:37;4.88;;;3.30;;
55827;SDS011;41758;51.992;5.890;2022-09-29T03:55:03;3.95;;;2.67;;
55827;SDS011;41758;51.992;5.890;2022-09-29T03:57:29;4.57;;;2.80;;
55827;SDS011;41758;51.992;5.890;2022-09-29T03:59:55;3.88;;;2.40;;
55827;SDS011;41758;51.992;5.890;2022-09-29T04:02:21;3.70;;;2.33;;
55827;SDS011;41758;51.992;5.890;2022-09-29T04:04:47;3.83;;;2.50;;
55827;SDS011;41758;51.992;5.890;2022-09-29T04:07:13;5.18;;;2.90;;
55827;SDS011;41758;51.992;5.890;2022-09-29T04:09:38;4.68;;;3.03;;
55827;SDS011;41758;51.992;5.890;2022-09-29T04:12:04;4.53;;;2.88;;
55827;SDS011;41758;51.992;5.890;2022-09-29T04:14:30;4.55;;;2.83;;
55827;SDS011;41758;51.992;5.890;2022-09-29T04:16:55;5.72;;;2.97;;
55827;SDS011;41758;51.992;5.890;2022-09-29T04:19:21;4.30;;;3.00;;
55827;SDS011;41758;51.992;5.890;2022-09-29T04:21:47;4.47;;;2.92;;
55827;SDS011;41758;51.992;5.890;2022-09-29T04:24:12;4.50;;;2.80;;
55827;SDS011;41758;51.992;5.890;2022-09-29T04:26:38;4.78;;;2.85;;
55827;SDS011;41758;51.992;5.890;2022-09-29T04:29:04;4.30;;;2.60;;
55827;SDS011;41758;51.992;5.890;2022-09-29T04:31:30;4.47;;;2.42;;
55827;SDS011;41758;51.992;5.890;2022-09-29T04:33:56;3.42;;;2.28;;
55827;SDS011;41758;51.992;5.890;2022-09-29T04:36:22;4.00;;;2.63;;
55827;SDS011;41758;51.992;5.890;2022-09-29T04:38:48;4.20;;;2.75;;
55827;SDS011;41758;51.992;5.890;2022-09-29T04:41:15;5.38;;;3.42;;
55827;SDS011;41758;51.992;5.890;2022-09-29T04:43:41;4.57;;;2.92;;
55827;SDS011;41758;51.992;5.890;2022-09-29T04:46:07;5.40;;;3.47;;
55827;SDS011;41758;51.992;5.890;2022-09-29T04:48:34;4.97;;;3.65;;
55827;SDS011;41758;51.992;5.890;2022-09-29T04:51:00;5.35;;;3.47;;
55827;SDS011;41758;51.992;5.890;2022-09-29T04:53:26;4.82;;;2.92;;
55827;SDS011;41758;51.992;5.890;2022-09-29T04:55:52;5.05;;;2.90;;
55827;SDS011;41758;51.992;5.890;2022-09-29T04:58:18;5.00;;;3.05;;
55827;SDS011;41758;51.992;5.890;2022-09-29T05:00:44;5.20;;;3.35;;
55827;SDS011;41758;51.992;5.890;2022-09-29T05:03:09;4.40;;;2.90;;
55827;SDS011;41758;51.992;5.890;2022-09-29T05:05:35;6.65;;;4.03;;
55827;SDS011;41758;51.992;5.890;2022-09-29T05:08:04;5.35;;;3.53;;
55827;SDS011;41758;51.992;5.890;2022-09-29T05:10:31;5.05;;;3.30;;
55827;SDS011;41758;51.992;5.890;2022-09-29T05:12:57;6.10;;;4.00;;
55827;SDS011;41758;51.992;5.890;2022-09-29T05:15:22;4.93;;;3.47;;
55827;SDS011;41758;51.992;5.890;2022-09-29T05:17:48;4.88;;;3.15;;
55827;SDS011;41758;51.992;5.890;2022-09-29T05:20:14;4.90;;;2.78;;
55827;SDS011;41758;51.992;5.890;2022-09-29T05:22:40;4.90;;;2.80;;
55827;SDS011;41758;51.992;5.890;2022-09-29T05:25:07;5.80;;;2.90;;
55827;SDS011;41758;51.992;5.890;2022-09-29T05:27:34;4.93;;;3.05;;
55827;SDS011;41758;51.992;5.890;2022-09-29T05:30:00;6.40;;;3.58;;
55827;SDS011;41758;51.992;5.890;2022-09-29T05:32:26;7.28;;;3.88;;
55827;SDS011;41758;51.992;5.890;2022-09-29T05:34:52;6.65;;;3.92;;
55827;SDS011;41758;51.992;5.890;2022-09-29T05:37:17;5.82;;;3.22;;
55827;SDS011;41758;51.992;5.890;2022-09-29T05:39:43;5.05;;;3.00;;
55827;SDS011;41758;51.992;5.890;2022-09-29T05:42:10;5.38;;;3.33;;
55827;SDS011;41758;51.992;5.890;2022-09-29T05:44:36;4.45;;;2.65;;
55827;SDS011;41758;51.992;5.890;2022-09-29T05:47:04;5.57;;;3.13;;
55827;SDS011;41758;51.992;5.890;2022-09-29T05:49:51;6.25;;;3.92;;
55827;SDS011;41758;51.992;5.890;2022-09-29T05:52:17;6.53;;;4.13;;
55827;SDS011;41758;51.992;5.890;2022-09-29T05:54:42;7.05;;;3.92;;
55827;SDS011;41758;51.992;5.890;2022-09-29T05:57:08;5.75;;;3.40;;
55827;SDS011;41758;51.992;5.890;2022-09-29T05:59:35;5.82;;;3.50;;
55827;SDS011;41758;51.992;5.890;2022-09-29T06:02:00;5.38;;;3.22;;
55827;SDS011;41758;51.992;5.890;2022-09-29T06:04:26;7.88;;;4.70;;
55827;SDS011;41758;51.992;5.890;2022-09-29T06:06:52;7.22;;;4.30;;
55827;SDS011;41758;51.992;5.890;2022-09-29T06:09:19;6.50;;;4.25;;
55827;SDS011;41758;51.992;5.890;2022-09-29T06:11:45;5.55;;;3.58;;
55827;SDS011;41758;51.992;5.890;2022-09-29T06:14:10;5.72;;;3.78;;
55827;SDS011;41758;51.992;5.890;2022-09-29T06:16:36;9.05;;;5.30;;
55827;SDS011;41758;51.992;5.890;2022-09-29T06:19:02;7.72;;;4.55;;
55827;SDS011;41758;51.992;5.890;2022-09-29T06:21:31;7.07;;;5.00;;
55827;SDS011;41758;51.992;5.890;2022-09-29T06:23:59;6.57;;;4.60;;
55827;SDS011;41758;51.992;5.890;2022-09-29T06:26:31;6.82;;;4.20;;
55827;SDS011;41758;51.992;5.890;2022-09-29T06:28:57;7.75;;;4.97;;
55827;SDS011;41758;51.992;5.890;2022-09-29T06:31:26;6.65;;;4.80;;
55827;SDS011;41758;51.992;5.890;2022-09-29T06:33:57;6.82;;;4.82;;
55827;SDS011;41758;51.992;5.890;2022-09-29T06:36:34;6.20;;;4.05;;
55827;SDS011;41758;51.992;5.890;2022-09-29T06:39:22;6.97;;;4.78;;
55827;SDS011;41758;51.992;5.890;2022-09-29T06:41:48;7.00;;;4.80;;
55827;SDS011;41758;51.992;5.890;2022-09-29T06:44:18;6.88;;;4.80;;
55827;SDS011;41758;51.992;5.890;2022-09-29T06:46:44;6.57;;;4.35;;
55827;SDS011;41758;51.992;5.890;2022-09-29T06:49:11;7.40;;;5.10;;
55827;SDS011;41758;51.992;5.890;2022-09-29T06:51:38;6.97;;;4.80;;
55827;SDS011;41758;51.992;5.890;2022-09-29T06:54:04;6.90;;;5.20;;
55827;SDS011;41758;51.992;5.890;2022-09-29T06:56:29;7.55;;;5.20;;
55827;SDS011;41758;51.992;5.890;2022-09-29T06:58:55;7.38;;;5.05;;
55827;SDS011;41758;51.992;5.890;2022-09-29T07:01:21;7.82;;;5.35;;
55827;SDS011;41758;51.992;5.890;2022-09-29T07:03:47;9.48;;;6.03;;
55827;SDS011;41758;51.992;5.890;2022-09-29T07:06:12;7.78;;;5.50;;
55827;SDS011;41758;51.992;5.890;2022-09-29T07:08:38;8.88;;;6.05;;
55827;SDS011;41758;51.992;5.890;2022-09-29T07:11:08;9.57;;;6.20;;
55827;SDS011;41758;51.992;5.890;2022-09-29T07:13:35;8.85;;;5.75;;
55827;SDS011;41758;51.992;5.890;2022-09-29T07:16:08;10.07;;;6.03;;
55827;SDS011;41758;51.992;5.890;2022-09-29T07:18:36;8.25;;;5.70;;
55827;SDS011;41758;51.992;5.890;2022-09-29T07:21:05;8.18;;;5.47;;
55827;SDS011;41758;51.992;5.890;2022-09-29T07:23:34;8.93;;;6.18;;
55827;SDS011;41758;51.992;5.890;2022-09-29T07:26:00;8.25;;;6.10;;
55827;SDS011;41758;51.992;5.890;2022-09-29T07:28:29;8.40;;;5.80;;
55827;SDS011;41758;51.992;5.890;2022-09-29T07:31:37;7.57;;;5.28;;
55827;SDS011;41758;51.992;5.890;2022-09-29T07:33:45;12.38;;;8.50;;
55827;SDS011;41758;51.992;5.890;2022-09-29T07:36:13;9.90;;;6.82;;
55827;SDS011;41758;51.992;5.890;2022-09-29T07:38:40;9.38;;;6.70;;
55827;SDS011;41758;51.992;5.890;2022-09-29T07:41:07;10.45;;;7.30;;
55827;SDS011;41758;51.992;5.890;2022-09-29T07:43:35;12.68;;;9.15;;
55827;SDS011;41758;51.992;5.890;2022-09-29T07:46:01;10.88;;;7.85;;
55827;SDS011;41758;51.992;5.890;2022-09-29T07:48:28;10.20;;;7.78;;
55827;SDS011;41758;51.992;5.890;2022-09-29T07:51:08;10.82;;;8.10;;
55827;SDS011;41758;51.992;5.890;2022-09-29T07:53:39;10.07;;;7.57;;
55827;SDS011;41758;51.992;5.890;2022-09-29T07:56:06;11.98;;;9.10;;
55827;SDS011;41758;51.992;5.890;2022-09-29T07:58:33;10.98;;;8.43;;
55827;SDS011;41758;51.992;5.890;2022-09-29T08:01:02;10.15;;;6.95;;
55827;SDS011;41758;51.992;5.890;2022-09-29T08:03:31;10.90;;;8.32;;
55827;SDS011;41758;51.992;5.890;2022-09-29T08:05:57;14.45;;;9.98;;
55827;SDS011;41758;51.992;5.890;2022-09-29T08:08:23;11.68;;;8.80;;
55827;SDS011;41758;51.992;5.890;2022-09-29T08:10:50;14.10;;;9.10;;
55827;SDS011;41758;51.992;5.890;2022-09-29T08:13:16;13.00;;;9.65;;
55827;SDS011;41758;51.992;5.890;2022-09-29T08:15:42;16.50;;;13.10;;
55827;SDS011;41758;51.992;5.890;2022-09-29T08:18:08;13.90;;;11.07;;
55827;SDS011;41758;51.992;5.890;2022-09-29T08:20:34;13.93;;;10.93;;
55827;SDS011;41758;51.992;5.890;2022-09-29T08:23:00;13.55;;;10.98;;
55827;SDS011;41758;51.992;5.890;2022-09-29T08:25:26;16.65;;;12.90;;
55827;SDS011;41758;51.992;5.890;2022-09-29T08:27:54;17.80;;;12.93;;
55827;SDS011;41758;51.992;5.890;2022-09-29T08:30:41;16.00;;;11.98;;
55827;SDS011;41758;51.992;5.890;2022-09-29T08:33:07;17.67;;;12.35;;
55827;SDS011;41758;51.992;5.890;2022-09-29T08:35:39;14.55;;;11.93;;
55827;SDS011;41758;51.992;5.890;2022-09-29T08:38:05;14.02;;;10.68;;
55827;SDS011;41758;51.992;5.890;2022-09-29T08:40:31;17.13;;;12.15;;
55827;SDS011;41758;51.992;5.890;2022-09-29T08:43:13;14.20;;;11.13;;
55827;SDS011;41758;51.992;5.890;2022-09-29T08:45:45;20.42;;;14.25;;
55827;SDS011;41758;51.992;5.890;2022-09-29T08:48:22;19.90;;;14.35;;
55827;SDS011;41758;51.992;5.890;2022-09-29T08:51:03;24.45;;;16.73;;
55827;SDS011;41758;51.992;5.890;2022-09-29T08:53:34;18.60;;;14.30;;
55827;SDS011;41758;51.992;5.890;2022-09-29T08:56:08;16.00;;;12.13;;
55827;SDS011;41758;51.992;5.890;2022-09-29T08:58:39;22.33;;;16.80;;
55827;SDS011;41758;51.992;5.890;2022-09-29T09:17:38;26.48;;;21.40;;
55827;SDS011;41758;51.992;5.890;2022-09-29T09:20:40;25.35;;;19.70;;
55827;SDS011;41758;51.992;5.890;2022-09-29T09:25:48;18.45;;;14.15;;
55827;SDS011;41758;51.992;5.890;2022-09-29T09:31:21;20.77;;;16.30;;
55827;SDS011;41758;51.992;5.890;2022-09-29T09:34:13;14.55;;;11.85;;
55827;SDS011;41758;51.992;5.890;2022-09-29T09:36:54;13.55;;;9.05;;
55827;SDS011;41758;51.992;5.890;2022-09-29T09:39:32;21.05;;;16.15;;
55827;SDS011;41758;51.992;5.890;2022-09-29T09:42:02;18.45;;;14.50;;
55827;SDS011;41758;51.992;5.890;2022-09-29T09:44:37;22.27;;;16.88;;
55827;SDS011;41758;51.992;5.890;2022-09-29T09:49:47;14.65;;;11.50;;
55827;SDS011;41758;51.992;5.890;2022-09-29T09:52:20;12.13;;;10.02;;
55827;SDS011;41758;51.992;5.890;2022-09-29T09:54:52;17.02;;;10.93;;
55827;SDS011;41758;51.992;5.890;2022-09-29T10:00:32;18.67;;;14.45;;
55827;SDS011;41758;51.992;5.890;2022-09-29T10:03:06;15.35;;;12.45;;
55827;SDS011;41758;51.992;5.890;2022-09-29T10:11:41;11.00;;;8.25;;
55827;SDS011;41758;51.992;5.890;2022-09-29T10:14:20;11.38;;;8.00;;
55827;SDS011;41758;51.992;5.890;2022-09-29T10:17:04;11.15;;;8.45;;
55827;SDS011;41758;51.992;5.890;2022-09-29T10:22:38;13.00;;;9.70;;
55827;SDS011;41758;51.992;5.890;2022-09-29T10:32:57;13.18;;;10.30;;
55827;SDS011;41758;51.992;5.890;2022-09-29T10:45:57;14.82;;;11.13;;
55827;SDS011;41758;51.992;5.890;2022-09-29T10:48:39;17.33;;;13.77;;
55827;SDS011;41758;51.992;5.890;2022-09-29T10:58:27;13.95;;;10.57;;
55827;SDS011;41758;51.992;5.890;2022-09-29T11:01:11;17.00;;;11.63;;
55827;SDS011;41758;51.992;5.890;2022-09-29T11:07:11;11.18;;;8.30;;
55827;SDS011;41758;51.992;5.890;2022-09-29T11:09:49;11.20;;;8.93;;
55827;SDS011;41758;51.992;5.890;2022-09-29T11:12:35;12.93;;;9.07;;
55827;SDS011;41758;51.992;5.890;2022-09-29T11:15:25;12.57;;;8.80;;
55827;SDS011;41758;51.992;5.890;2022-09-29T11:18:22;11.50;;;8.68;;
55827;SDS011;41758;51.992;5.890;2022-09-29T11:24:05;10.10;;;7.18;;
55827;SDS011;41758;51.992;5.890;2022-09-29T11:29:54;11.65;;;8.60;;
55827;SDS011;41758;51.992;5.890;2022-09-29T11:32:47;11.63;;;8.57;;
55827;SDS011;41758;51.992;5.890;2022-09-29T11:35:42;10.25;;;7.53;;
55827;SDS011;41758;51.992;5.890;2022-09-29T11:38:29;9.95;;;6.65;;
55827;SDS011;41758;51.992;5.890;2022-09-29T11:58:18;6.40;;;4.47;;
55827;SDS011;41758;51.992;5.890;2022-09-29T12:04:00;7.03;;;4.47;;
55827;SDS011;41758;51.992;5.890;2022-09-29T12:11:59;7.03;;;4.63;;
55827;SDS011;41758;51.992;5.890;2022-09-29T12:17:17;5.60;;;4.10;;
55827;SDS011;41758;51.992;5.890;2022-09-29T12:19:44;7.03;;;4.88;;
55827;SDS011;41758;51.992;5.890;2022-09-29T12:22:38;6.18;;;4.07;;
55827;SDS011;41758;51.992;5.890;2022-09-29T12:25:09;5.85;;;3.90;;
55827;SDS011;41758;51.992;5.890;2022-09-29T12:27:43;5.10;;;3.33;;
55827;SDS011;41758;51.992;5.890;2022-09-29T12:30:17;6.25;;;3.78;;
55827;SDS011;41758;51.992;5.890;2022-09-29T12:38:38;4.10;;;2.40;;
55827;SDS011;41758;51.992;5.890;2022-09-29T12:41:11;3.78;;;2.42;;
55827;SDS011;41758;51.992;5.890;2022-09-29T12:44:30;5.50;;;2.38;;
55827;SDS011;41758;51.992;5.890;2022-09-29T12:47:01;4.95;;;2.80;;
55827;SDS011;41758;51.992;5.890;2022-09-29T12:49:52;4.63;;;2.80;;
55827;SDS011;41758;51.992;5.890;2022-09-29T12:52:39;4.47;;;2.67;;
55827;SDS011;41758;51.992;5.890;2022-09-29T12:55:17;4.85;;;2.40;;
55827;SDS011;41758;51.992;5.890;2022-09-29T12:57:49;4.50;;;2.92;;
55827;SDS011;41758;51.992;5.890;2022-09-29T13:00:18;4.93;;;2.78;;
55827;SDS011;41758;51.992;5.890;2022-09-29T13:16:12;3.88;;;2.00;;
55827;SDS011;41758;51.992;5.890;2022-09-29T13:29:52;3.50;;;2.20;;
55827;SDS011;41758;51.992;5.890;2022-09-29T13:32:20;3.72;;;2.28;;
55827;SDS011;41758;51.992;5.890;2022-09-29T13:34:51;3.58;;;1.80;;
55827;SDS011;41758;51.992;5.890;2022-09-29T13:37:20;4.78;;;2.58;;
55827;SDS011;41758;51.992;5.890;2022-09-29T13:39:58;4.93;;;2.60;;
55827;SDS011;41758;51.992;5.890;2022-09-29T13:47:57;3.33;;;1.80;;
55827;SDS011;41758;51.992;5.890;2022-09-29T13:50:39;2.93;;;1.77;;
55827;SDS011;41758;51.992;5.890;2022-09-29T13:55:53;3.10;;;1.90;;
55827;SDS011;41758;51.992;5.890;2022-09-29T13:58:33;3.47;;;1.90;;
55827;SDS011;41758;51.992;5.890;2022-09-29T14:01:06;2.72;;;1.65;;
55827;SDS011;41758;51.992;5.890;2022-09-29T14:03:41;4.50;;;2.00;;
55827;SDS011;41758;51.992;5.890;2022-09-29T14:08:42;3.13;;;1.50;;
55827;SDS011;41758;51.992;5.890;2022-09-29T14:11:33;2.28;;;1.40;;
55827;SDS011;41758;51.992;5.890;2022-09-29T14:27:39;3.55;;;2.20;;
55827;SDS011;41758;51.992;5.890;2022-09-29T14:32:51;3.80;;;2.17;;
55827;SDS011;41758;51.992;5.890;2022-09-29T14:35:39;3.10;;;1.95;;
55827;SDS011;41758;51.992;5.890;2022-09-29T14:41:00;2.58;;;1.58;;
55827;SDS011;41758;51.992;5.890;2022-09-29T14:43:36;2.33;;;1.50;;
55827;SDS011;41758;51.992;5.890;2022-09-29T14:58:03;3.22;;;1.58;;
55827;SDS011;41758;51.992;5.890;2022-09-29T15:03:45;2.65;;;1.73;;
55827;SDS011;41758;51.992;5.890;2022-09-29T15:08:39;3.13;;;1.75;;
55827;SDS011;41758;51.992;5.890;2022-09-29T15:11:26;3.33;;;1.85;;
55827;SDS011;41758;51.992;5.890;2022-09-29T15:19:50;3.13;;;1.83;;
55827;SDS011;41758;51.992;5.890;2022-09-29T15:25:20;3.60;;;1.80;;
55827;SDS011;41758;51.992;5.890;2022-09-29T15:28:00;3.13;;;1.80;;
55827;SDS011;41758;51.992;5.890;2022-09-29T15:30:29;2.80;;;1.83;;
55827;SDS011;41758;51.992;5.890;2022-09-29T15:33:05;3.50;;;1.83;;
55827;SDS011;41758;51.992;5.890;2022-09-29T15:35:40;3.90;;;1.80;;
55827;SDS011;41758;51.992;5.890;2022-09-29T15:40:34;2.53;;;1.58;;
55827;SDS011;41758;51.992;5.890;2022-09-29T15:43:25;2.70;;;1.65;;
55827;SDS011;41758;51.992;5.890;2022-09-29T15:45:56;2.90;;;1.80;;
55827;SDS011;41758;51.992;5.890;2022-09-29T15:48:25;3.17;;;1.83;;
55827;SDS011;41758;51.992;5.890;2022-09-29T15:50:51;2.92;;;1.58;;
55827;SDS011;41758;51.992;5.890;2022-09-29T15:53:19;2.95;;;1.60;;
55827;SDS011;41758;51.992;5.890;2022-09-29T15:55:48;2.58;;;1.58;;
55827;SDS011;41758;51.992;5.890;2022-09-29T15:58:32;3.28;;;1.90;;
55827;SDS011;41758;51.992;5.890;2022-09-29T16:01:06;3.70;;;1.80;;
55827;SDS011;41758;51.992;5.890;2022-09-29T16:06:16;2.47;;;1.73;;
55827;SDS011;41758;51.992;5.890;2022-09-29T16:08:57;3.22;;;2.13;;
55827;SDS011;41758;51.992;5.890;2022-09-29T16:11:35;4.20;;;2.15;;
55827;SDS011;41758;51.992;5.890;2022-09-29T16:14:03;3.58;;;1.80;;
55827;SDS011;41758;51.992;5.890;2022-09-29T16:16:41;2.85;;;1.65;;
55827;SDS011;41758;51.992;5.890;2022-09-29T16:19:14;2.90;;;1.70;;
55827;SDS011;41758;51.992;5.890;2022-09-29T16:21:48;4.50;;;2.60;;
55827;SDS011;41758;51.992;5.890;2022-09-29T16:24:25;3.38;;;2.00;;
55827;SDS011;41758;51.992;5.890;2022-09-29T16:26:57;2.72;;;1.88;;
55827;SDS011;41758;51.992;5.890;2022-09-29T16:29:28;3.90;;;2.25;;
55827;SDS011;41758;51.992;5.890;2022-09-29T16:31:56;3.35;;;2.25;;
55827;SDS011;41758;51.992;5.890;2022-09-29T16:34:24;4.13;;;2.20;;
55827;SDS011;41758;51.992;5.890;2022-09-29T16:37:02;4.25;;;2.08;;
55827;SDS011;41758;51.992;5.890;2022-09-29T16:39:31;3.47;;;2.10;;
55827;SDS011;41758;51.992;5.890;2022-09-29T16:42:04;3.42;;;1.90;;
55827;SDS011;41758;51.992;5.890;2022-09-29T16:44:32;3.35;;;1.90;;
55827;SDS011;41758;51.992;5.890;2022-09-29T16:47:11;3.05;;;1.70;;
55827;SDS011;41758;51.992;5.890;2022-09-29T16:49:48;3.15;;;1.70;;
55827;SDS011;41758;51.992;5.890;2022-09-29T16:55:10;3.50;;;1.90;;
55827;SDS011;41758;51.992;5.890;2022-09-29T17:00:37;4.68;;;3.20;;
55827;SDS011;41758;51.992;5.890;2022-09-29T17:03:03;5.22;;;3.13;;
55827;SDS011;41758;51.992;5.890;2022-09-29T17:05:29;4.45;;;2.70;;
55827;SDS011;41758;51.992;5.890;2022-09-29T17:08:02;3.45;;;2.00;;
55827;SDS011;41758;51.992;5.890;2022-09-29T17:10:29;3.90;;;2.10;;
55827;SDS011;41758;51.992;5.890;2022-09-29T17:12:55;3.05;;;1.80;;
55827;SDS011;41758;51.992;5.890;2022-09-29T17:15:22;3.72;;;1.88;;
55827;SDS011;41758;51.992;5.890;2022-09-29T17:17:50;3.47;;;2.00;;
55827;SDS011;41758;51.992;5.890;2022-09-29T17:20:20;2.92;;;1.88;;
55827;SDS011;41758;51.992;5.890;2022-09-29T17:22:53;3.10;;;1.80;;
55827;SDS011;41758;51.992;5.890;2022-09-29T17:25:19;2.90;;;1.70;;
55827;SDS011;41758;51.992;5.890;2022-09-29T17:27:45;2.50;;;1.60;;
55827;SDS011;41758;51.992;5.890;2022-09-29T17:30:29;3.25;;;1.80;;
55827;SDS011;41758;51.992;5.890;2022-09-29T17:32:56;3.53;;;1.83;;
55827;SDS011;41758;51.992;5.890;2022-09-29T17:35:23;3.28;;;1.70;;
55827;SDS011;41758;51.992;5.890;2022-09-29T17:37:54;2.92;;;1.60;;
55827;SDS011;41758;51.992;5.890;2022-09-29T17:43:07;4.20;;;2.78;;
55827;SDS011;41758;51.992;5.890;2022-09-29T17:45:33;3.83;;;2.58;;
55827;SDS011;41758;51.992;5.890;2022-09-29T17:48:02;5.55;;;3.30;;
55827;SDS011;41758;51.992;5.890;2022-09-29T17:50:36;4.82;;;3.13;;
55827;SDS011;41758;51.992;5.890;2022-09-29T17:53:05;4.68;;;2.80;;
55827;SDS011;41758;51.992;5.890;2022-09-29T17:55:31;6.70;;;3.78;;
55827;SDS011;41758;51.992;5.890;2022-09-29T17:57:58;5.80;;;3.53;;
55827;SDS011;41758;51.992;5.890;2022-09-29T18:00:35;7.38;;;4.80;;
55827;SDS011;41758;51.992;5.890;2022-09-29T18:03:03;6.65;;;4.47;;
55827;SDS011;41758;51.992;5.890;2022-09-29T18:05:30;5.60;;;3.85;;
55827;SDS011;41758;51.992;5.890;2022-09-29T18:07:57;5.80;;;3.40;;
55827;SDS011;41758;51.992;5.890;2022-09-29T18:12:53;4.85;;;2.83;;
55827;SDS011;41758;51.992;5.890;2022-09-29T18:15:20;4.13;;;2.40;;
55827;SDS011;41758;51.992;5.890;2022-09-29T18:17:46;5.30;;;2.72;;
55827;SDS011;41758;51.992;5.890;2022-09-29T18:20:13;5.00;;;2.95;;
55827;SDS011;41758;51.992;5.890;2022-09-29T18:22:43;4.25;;;2.70;;
55827;SDS011;41758;51.992;5.890;2022-09-29T18:25:11;4.82;;;2.78;;
55827;SDS011;41758;51.992;5.890;2022-09-29T18:27:37;5.38;;;3.20;;
55827;SDS011;41758;51.992;5.890;2022-09-29T18:30:22;4.25;;;2.40;;
55827;SDS011;41758;51.992;5.890;2022-09-29T18:32:53;5.47;;;3.80;;
55827;SDS011;41758;51.992;5.890;2022-09-29T18:35:23;6.90;;;4.80;;
55827;SDS011;41758;51.992;5.890;2022-09-29T18:37:51;6.60;;;4.40;;
55827;SDS011;41758;51.992;5.890;2022-09-29T18:40:17;6.90;;;4.60;;
55827;SDS011;41758;51.992;5.890;2022-09-29T18:42:44;7.75;;;4.70;;
55827;SDS011;41758;51.992;5.890;2022-09-29T18:45:12;7.65;;;5.28;;
55827;SDS011;41758;51.992;5.890;2022-09-29T18:50:16;7.15;;;4.75;;
55827;SDS011;41758;51.992;5.890;2022-09-29T18:52:47;9.10;;;6.47;;
55827;SDS011;41758;51.992;5.890;2022-09-29T18:55:15;10.20;;;5.50;;
55827;SDS011;41758;51.992;5.890;2022-09-29T18:57:53;9.07;;;6.32;;
55827;SDS011;41758;51.992;5.890;2022-09-29T19:00:21;9.30;;;6.15;;